Time;durP1;ratioP1;P1;durP2;ratioP2;P2;SDS_P1;SDS_P2;PMS_P1;PMS_P2;Temp;Humidity;BMP_temperature;BMP_pressure;BME280_temperature;BME280_humidity;BME280_pressure;Samples;Min_cycle;Max_cycle;Signal;HPM_P1;HPM_P2
2022/07/29 00:01:52;;;;;;;6.03;2.93;;;;;;;-143.84;69.16;45056.69;5094457;28;20444;-73
2022/07/29 00:04:19;;;;;;;2.53;2.33;;;;;;;-143.84;68.95;45043.34;5093892;28;20479;-74
2022/07/29 00:06:46;;;;;;;5.23;3.03;;;;;;;-143.84;68.86;45039.53;5093745;28;20428;-74
2022/07/29 00:09:14;;;;;;;4.40;2.37;;;;;;;-143.84;68.55;45020.50;5093884;28;20432;-73
2022/07/29 00:11:41;;;;;;;4.80;3.00;;;;;;;-143.84;68.53;45012.88;5094050;28;20483;-73
2022/07/29 00:14:10;;;;;;;3.23;2.50;;;;;;;-143.84;68.49;45039.53;5094154;28;20436;-73
2022/07/29 00:16:37;;;;;;;2.60;2.40;;;;;;;-143.84;68.51;45033.84;5093157;28;20456;-73
2022/07/29 00:19:04;;;;;;;7.50;2.37;;;;;;;-143.84;68.26;45035.75;5094303;28;20458;-73
2022/07/29 00:21:32;;;;;;;4.13;2.30;;;;;;;-143.84;68.52;45031.94;5094112;28;20440;-74
2022/07/29 00:23:59;;;;;;;7.10;2.77;;;;;;;-143.84;68.58;45041.44;5093802;28;20471;-73
2022/07/29 00:26:31;;;;;;;7.93;2.73;;;;;;;-143.84;68.35;45028.13;5093778;28;20444;-73
2022/07/29 00:28:58;;;;;;;2.93;2.70;;;;;;;-143.84;68.19;45033.84;5094051;28;20432;-73
2022/07/29 00:31:27;;;;;;;4.07;2.53;;;;;;;-143.84;68.29;45010.97;5093310;28;20921;-73
2022/07/29 00:33:54;;;;;;;6.50;2.90;;;;;;;-143.84;68.53;45022.41;5093100;28;20440;-73
2022/07/29 00:36:21;;;;;;;2.53;2.33;;;;;;;-143.84;68.41;45039.53;5093793;28;20436;-73
2022/07/29 00:38:48;;;;;;;8.70;2.23;;;;;;;-143.84;68.42;45020.50;5093769;28;20433;-73
2022/07/29 00:41:15;;;;;;;3.80;2.90;;;;;;;-143.84;68.53;45022.41;5093873;28;20436;-73
2022/07/29 00:43:42;;;;;;;5.10;2.40;;;;;;;-143.84;68.44;45030.03;5093501;28;20448;-73
2022/07/29 00:46:10;;;;;;;2.80;2.60;;;;;;;-143.84;68.78;45052.88;5093539;28;20432;-74
2022/07/29 00:48:39;;;;;;;3.10;2.80;;;;;;;-143.84;68.96;45010.97;5093193;28;20440;-73
2022/07/29 00:51:10;;;;;;;6.10;2.70;;;;;;;-143.84;68.98;45031.94;5093211;28;20980;-74
2022/07/29 00:53:38;;;;;;;4.13;2.50;;;;;;;-143.84;68.83;45026.22;5093476;28;20432;-73
2022/07/29 00:56:05;;;;;;;8.90;2.60;;;;;;;-143.84;68.45;45045.25;5080032;28;20485;-73
2022/07/29 00:58:32;;;;;;;2.90;2.80;;;;;;;-143.84;68.73;45033.84;5072757;28;20440;-73
2022/07/29 01:01:00;;;;;;;9.70;2.57;;;;;;;-143.84;69.00;45039.53;5072895;28;20939;-74
2022/07/29 01:03:27;;;;;;;3.43;2.50;;;;;;;-143.84;68.45;45041.44;5072820;28;20449;-74
2022/07/29 01:05:56;;;;;;;6.07;3.00;;;;;;;-143.84;68.34;45028.13;5072528;28;21005;-74
2022/07/29 01:08:24;;;;;;;3.43;3.13;;;;;;;-143.84;68.05;45037.66;5072331;28;20418;-74
2022/07/29 01:10:52;;;;;;;5.23;2.30;;;;;;;-143.84;68.30;45022.41;5072147;28;20565;-74
2022/07/29 01:13:20;;;;;;;7.80;2.60;;;;;;;-143.84;68.41;45037.66;5071835;28;20441;-73
2022/07/29 01:15:53;;;;;;;5.47;2.27;;;;;;;-143.84;68.26;45028.13;5084964;28;20526;-73
2022/07/29 01:18:29;;;;;;;4.13;2.43;;;;;;;-143.84;67.81;45043.34;5092842;28;20941;-74
2022/07/29 01:21:28;;;;;;;2.50;2.40;;;;;;;-143.84;68.18;45043.34;5092905;28;20440;-73
2022/07/29 01:24:16;;;;;;;4.13;3.10;;;;;;;-143.84;67.85;45028.13;5092473;28;20428;-73
2022/07/29 01:26:47;;;;;;;3.10;2.60;;;;;;;-143.84;67.46;45016.69;5093015;28;20504;-73
2022/07/29 01:29:24;;;;;;;2.77;2.57;;;;;;;-143.84;66.98;45043.34;5092707;28;20437;-73
2022/07/29 01:31:57;;;;;;;4.93;3.57;;;;;;;-143.84;67.03;45031.94;5092580;28;20453;-73
2022/07/29 01:34:31;;;;;;;7.50;2.60;;;;;;;-143.84;66.57;45033.84;5092820;28;20458;-73
2022/07/29 01:37:07;;;;;;;3.43;2.20;;;;;;;-143.84;66.19;45031.94;5092350;28;20436;-73
2022/07/29 01:39:38;;;;;;;3.37;2.70;;;;;;;-143.84;66.19;45039.53;5092211;28;21078;-74
2022/07/29 01:42:13;;;;;;;5.43;2.57;;;;;;;-143.84;65.88;45014.78;5092510;28;20424;-73
2022/07/29 01:44:49;;;;;;;12.63;3.10;;;;;;;-143.84;65.41;45062.41;5092242;28;20536;-73
2022/07/29 01:47:21;;;;;;;2.73;2.50;;;;;;;-143.84;64.71;45024.31;5091856;28;20439;-73
2022/07/29 01:49:54;;;;;;;4.07;2.73;;;;;;;-143.84;64.63;45022.41;5091472;28;20875;-74
2022/07/29 01:52:26;;;;;;;2.73;2.53;;;;;;;-143.84;64.72;45012.88;5092211;28;20930;-74
2022/07/29 01:54:58;;;;;;;4.93;2.77;;;;;;;-143.84;64.79;45058.59;5092382;28;20833;-73
2022/07/29 01:57:29;;;;;;;3.30;2.77;;;;;;;-143.84;64.73;45037.66;5091714;28;20491;-73
2022/07/29 02:00:00;;;;;;;4.77;3.33;;;;;;;-143.84;64.50;45045.25;5091793;28;20511;-73
2022/07/29 02:02:29;;;;;;;3.63;2.93;;;;;;;-143.84;64.19;45039.53;5092216;28;20933;-73
2022/07/29 02:04:57;;;;;;;5.63;2.50;;;;;;;-143.84;64.28;45049.06;5091986;28;21072;-73
2022/07/29 02:07:28;;;;;;;4.13;2.60;;;;;;;-143.84;63.73;45022.41;5092141;28;20451;-73
2022/07/29 02:09:57;;;;;;;3.87;2.90;;;;;;;-143.84;63.88;45033.84;5091727;28;20475;-73
2022/07/29 02:12:26;;;;;;;3.30;2.77;;;;;;;-143.84;64.05;45052.88;5091988;28;20432;-73
2022/07/29 02:14:56;;;;;;;4.43;2.47;;;;;;;-143.84;64.14;45020.50;5086549;28;20448;-73
2022/07/29 02:17:28;;;;;;;7.20;2.77;;;;;;;-143.84;64.50;45041.44;5071599;28;20441;-73
2022/07/29 02:20:00;;;;;;;3.20;2.90;;;;;;;-143.84;64.05;45060.50;5071793;28;20518;-73
2022/07/29 02:22:29;;;;;;;3.40;2.70;;;;;;;-143.84;64.63;45047.16;5071484;28;20863;-73
2022/07/29 02:24:58;;;;;;;4.60;3.23;;;;;;;-143.84;64.79;45037.66;5071391;28;20480;-73
2022/07/29 02:27:27;;;;;;;6.53;2.70;;;;;;;-143.84;65.82;45049.06;5071664;28;20790;-73
2022/07/29 02:29:55;;;;;;;2.80;2.60;;;;;;;-143.84;66.64;45056.69;5071227;28;20440;-74
2022/07/29 02:32:25;;;;;;;3.20;2.40;;;;;;;-143.84;67.52;45058.59;5071312;28;20488;-73
2022/07/29 02:34:54;;;;;;;3.00;2.80;;;;;;;-143.84;67.77;45037.66;5071017;28;20939;-74
2022/07/29 02:37:22;;;;;;;3.07;2.80;;;;;;;-143.84;68.23;45043.34;5089781;28;21011;-74
2022/07/29 02:39:53;;;;;;;2.70;2.50;;;;;;;-143.84;68.92;45049.06;5111163;28;20495;-73
2022/07/29 02:42:22;;;;;;;6.27;3.10;;;;;;;-143.84;69.57;45020.50;5096145;28;20443;-73
2022/07/29 02:44:50;;;;;;;5.30;2.80;;;;;;;-143.84;70.27;45026.22;5091323;28;20476;-73
2022/07/29 02:47:21;;;;;;;5.30;2.83;;;;;;;-143.84;71.25;45012.88;5091210;28;20443;-73
2022/07/29 02:49:56;;;;;;;2.90;2.70;;;;;;;-143.84;71.94;45037.66;5091372;28;20446;-73
2022/07/29 02:52:28;;;;;;;3.23;2.97;;;;;;;-143.84;72.83;45030.03;5091214;28;20471;-73
2022/07/29 02:55:01;;;;;;;6.37;3.53;;;;;;;-143.84;73.48;45062.41;5090754;28;20456;-73
2022/07/29 02:57:34;;;;;;;8.80;3.23;;;;;;;-143.84;73.99;45035.75;5090946;28;20446;-73
2022/07/29 03:00:05;;;;;;;3.13;2.93;;;;;;;-143.84;74.90;45068.13;5091212;28;20432;-74
2022/07/29 03:02:36;;;;;;;3.80;3.40;;;;;;;-143.84;75.10;45047.16;5091434;28;20905;-74
2022/07/29 03:05:08;;;;;;;3.93;3.03;;;;;;;-143.84;75.70;45037.66;5091199;28;20476;-74
2022/07/29 03:07:36;;;;;;;3.20;2.90;;;;;;;-143.84;75.96;45035.75;5091404;28;20448;-74
2022/07/29 03:10:05;;;;;;;5.53;3.53;;;;;;;-143.84;76.32;45062.41;5090721;28;20472;-74
2022/07/29 03:12:32;;;;;;;3.70;3.13;;;;;;;-143.84;76.88;45047.16;5091271;28;20427;-74
2022/07/29 03:15:01;;;;;;;3.10;2.90;;;;;;;-143.84;77.28;45050.97;5097486;28;20427;-74
2022/07/29 03:17:29;;;;;;;6.40;3.50;;;;;;;-143.84;77.34;45068.13;5111436;28;20435;-73
2022/07/29 03:19:58;;;;;;;4.13;2.50;;;;;;;-143.84;77.53;45035.75;5111615;28;20475;-74
2022/07/29 03:22:32;;;;;;;6.50;3.17;;;;;;;-143.84;77.18;45035.75;5109776;28;20430;-73
2022/07/29 03:25:09;;;;;;;3.90;3.00;;;;;;;-143.84;77.11;45058.59;5109950;28;20474;-74
2022/07/29 03:27:36;;;;;;;7.80;2.93;;;;;;;-143.84;77.06;45041.44;5110779;28;20526;-74
2022/07/29 03:30:04;;;;;;;5.07;2.90;;;;;;;-143.84;76.92;45066.22;5110555;28;20434;-74
2022/07/29 03:32:31;;;;;;;5.70;2.73;;;;;;;-143.84;76.88;45060.50;5110575;28;20977;-74
2022/07/29 03:34:58;;;;;;;3.90;3.50;;;;;;;-143.84;76.49;45050.97;5110612;28;20446;-74
2022/07/29 03:37:25;;;;;;;2.97;2.80;;;;;;;-143.84;76.28;45041.44;5110698;28;20435;-73
2022/07/29 03:39:56;;;;;;;9.00;2.73;;;;;;;-143.84;75.58;45031.94;5110766;28;20875;-73
2022/07/29 03:42:28;;;;;;;3.00;2.80;;;;;;;-143.84;75.21;45033.84;5111193;28;20435;-73
2022/07/29 03:44:56;;;;;;;3.07;2.50;;;;;;;-143.84;74.41;45052.88;5111317;28;20475;-73
2022/07/29 03:47:26;;;;;;;7.00;2.70;;;;;;;-143.84;74.21;45024.31;5110808;28;20505;-73
2022/07/29 03:49:57;;;;;;;8.10;3.13;;;;;;;-143.84;72.96;45047.16;5111067;28;20435;-73
2022/07/29 03:52:25;;;;;;;7.60;3.33;;;;;;;-143.84;70.34;45007.19;5112829;28;20427;-74
2022/07/29 03:54:52;;;;;;;8.73;2.70;;;;;;;-143.84;67.72;44990.03;5114720;28;20431;-73
2022/07/29 03:57:24;;;;;;;3.50;2.70;;;;;;;-143.84;63.72;45024.31;5114684;28;20431;-73
2022/07/29 03:59:52;;;;;;;3.43;2.30;;;;;;;-143.84;60.49;44976.72;5114384;28;20439;-73
2022/07/29 04:02:20;;;;;;;8.73;2.50;;;;;;;-143.84;57.51;44969.09;5114198;28;20427;-73
2022/07/29 04:04:48;;;;;;;2.13;2.03;;;;;;;-143.84;55.23;44980.53;5114192;28;20458;-73
2022/07/29 04:07:16;;;;;;;2.20;2.10;;;;;;;-143.84;53.02;44972.91;5114001;28;20446;-73
2022/07/29 04:09:43;;;;;;;3.30;2.30;;;;;;;-143.84;51.61;44946.25;5113363;28;20445;-73
2022/07/29 04:12:11;;;;;;;6.40;2.07;;;;;;;-143.84;50.14;44971.00;5114075;28;20438;-73
2022/07/29 04:14:40;;;;;;;3.70;2.07;;;;;;;-143.84;48.80;44911.97;5108035;28;20440;-73
2022/07/29 04:17:07;;;;;;;3.00;2.20;;;;;;;-143.84;47.73;44957.66;5072851;28;20441;-73
2022/07/29 04:19:34;;;;;;;8.83;2.23;;;;;;;-143.84;46.64;44940.53;5072803;28;20498;-73
2022/07/29 04:22:02;;;;;;;4.80;2.20;;;;;;;-143.84;46.01;44927.19;5072790;28;20919;-73
2022/07/29 04:24:29;;;;;;;10.33;2.27;;;;;;;-143.84;45.71;44934.81;5072843;28;20906;-73
2022/07/29 04:26:56;;;;;;;6.40;2.10;;;;;;;-143.84;44.99;44950.06;5072854;28;21075;-73
2022/07/29 04:29:23;;;;;;;3.70;2.07;;;;;;;-143.84;44.38;44906.25;5072723;28;20445;-74
2022/07/29 04:31:52;;;;;;;2.17;2.00;;;;;;;-143.84;43.49;44921.50;5072829;28;20799;-73
2022/07/29 04:34:19;;;;;;;4.00;2.50;;;;;;;-143.84;42.73;44917.69;5072660;28;20437;-74
2022/07/29 04:36:46;;;;;;;2.43;2.23;;;;;;;-143.84;42.65;44898.66;5080270;28;20532;-73
2022/07/29 04:39:14;;;;;;;4.27;2.37;;;;;;;-143.84;42.40;44940.53;5084435;28;20448;-74
2022/07/29 04:41:41;;;;;;;2.00;1.90;;;;;;;-143.84;42.26;44919.59;5091943;28;20447;-74
2022/07/29 04:44:09;;;;;;;4.90;2.00;;;;;;;-143.84;41.64;44911.97;5092651;28;20493;-73
2022/07/29 04:46:36;;;;;;;6.93;2.17;;;;;;;-143.84;40.31;44871.97;5091070;28;20475;-72
2022/07/29 04:49:05;;;;;;;2.80;2.20;;;;;;;-143.84;40.55;44911.97;5091266;28;20431;-74
2022/07/29 04:51:33;;;;;;;2.13;1.93;;;;;;;-143.84;40.32;44921.50;5091400;28;20440;-73
2022/07/29 04:54:00;;;;;;;2.63;2.37;;;;;;;-143.84;40.03;44887.22;5091680;28;20840;-73
2022/07/29 04:56:27;;;;;;;12.33;2.53;;;;;;;-143.84;39.63;44908.16;5091610;28;20524;-72
2022/07/29 04:58:54;;;;;;;4.10;2.17;;;;;;;-143.84;38.78;44891.03;5091111;28;20440;-72
2022/07/29 05:01:22;;;;;;;3.57;1.80;;;;;;;-143.84;38.89;44881.50;5091496;28;20436;-73
2022/07/29 05:03:49;;;;;;;3.10;2.03;;;;;;;-143.84;38.44;44892.94;5091442;28;20984;-73
2022/07/29 05:06:17;;;;;;;3.80;2.13;;;;;;;-143.84;38.05;44908.16;5091292;28;20482;-73
2022/07/29 05:08:45;;;;;;;2.63;2.23;;;;;;;-143.84;38.15;44866.28;5091465;28;20456;-72
2022/07/29 05:11:12;;;;;;;27.37;2.10;;;;;;;-143.84;36.99;44862.47;5090474;28;20479;-73
2022/07/29 05:13:39;;;;;;;6.83;1.93;;;;;;;-143.84;36.86;44892.94;5090363;28;20435;-73
2022/07/29 05:16:07;;;;;;;7.10;2.03;;;;;;;-143.84;36.99;44894.84;5089578;28;20468;-73
2022/07/29 05:18:34;;;;;;;9.13;2.10;;;;;;;-143.84;37.02;44891.03;5072294;28;20501;-72
2022/07/29 05:21:01;;;;;;;5.03;2.10;;;;;;;-143.84;36.25;44864.38;5090140;28;20941;-72
2022/07/29 05:23:30;;;;;;;7.50;2.20;;;;;;;-143.84;36.02;44870.09;5090769;28;20510;-73
2022/07/29 05:25:57;;;;;;;4.03;2.27;;;;;;;-143.84;35.59;44854.84;5090104;28;20926;-72
2022/07/29 05:28:24;;;;;;;3.77;1.80;;;;;;;-143.84;35.17;44875.78;5090045;28;20944;-72
2022/07/29 05:30:51;;;;;;;2.03;1.70;;;;;;;-143.84;34.91;44851.03;5090460;28;20851;-72
2022/07/29 05:33:18;;;;;;;3.70;2.07;;;;;;;-143.84;34.82;44843.44;5090247;28;20428;-72
2022/07/29 05:35:45;;;;;;;3.93;2.30;;;;;;;-143.84;34.03;44851.03;5090437;28;20451;-72
2022/07/29 05:38:13;;;;;;;3.23;2.43;;;;;;;-143.84;34.22;44854.84;5089752;28;20494;-72
2022/07/29 05:40:41;;;;;;;4.43;2.03;;;;;;;-143.84;33.94;44843.44;5089406;28;20773;-72
2022/07/29 05:43:08;;;;;;;5.53;2.33;;;;;;;-143.84;34.20;44837.72;5089472;28;20440;-73
2022/07/29 05:45:36;;;;;;;7.40;2.30;;;;;;;-143.84;34.00;44841.53;5089853;28;20467;-72
2022/07/29 05:48:04;;;;;;;8.10;2.83;;;;;;;-143.84;33.86;44849.13;5089196;28;20453;-73
2022/07/29 05:50:31;;;;;;;5.93;2.80;;;;;;;-143.84;33.97;44822.47;5089592;28;20447;-73
2022/07/29 05:52:58;;;;;;;5.33;2.40;;;;;;;-143.84;33.23;44822.47;5090818;28;20443;-73
2022/07/29 05:55:26;;;;;;;10.87;2.50;;;;;;;-143.84;32.62;44812.97;5090583;28;20431;-72
2022/07/29 05:57:55;;;;;;;7.80;2.50;;;;;;;-143.84;33.28;44847.22;5090194;28;20451;-72
2022/07/29 06:00:22;;;;;;;2.73;2.10;;;;;;;-143.84;32.95;44839.63;5090180;28;20435;-72
2022/07/29 06:02:49;;;;;;;9.97;2.83;;;;;;;-143.84;32.24;44835.81;5091060;28;20440;-72
2022/07/29 06:05:17;;;;;;;11.13;2.80;;;;;;;-143.84;32.48;44832.00;5090460;28;20436;-72
2022/07/29 06:07:44;;;;;;;2.70;2.50;;;;;;;-143.84;32.76;44807.25;5090215;28;20507;-72
2022/07/29 06:10:11;;;;;;;7.10;2.60;;;;;;;-143.84;32.71;44797.72;5090209;28;20479;-73
2022/07/29 06:12:38;;;;;;;5.47;2.17;;;;;;;-143.84;32.27;44788.22;5090530;28;20447;-73
2022/07/29 06:15:08;;;;;;;5.67;2.50;;;;;;;-143.84;31.77;44811.06;5089114;28;20444;-72
2022/07/29 06:17:35;;;;;;;4.90;2.27;;;;;;;-143.84;32.40;44795.81;5089400;28;20440;-71
2022/07/29 06:20:03;;;;;;;2.67;1.90;;;;;;;-143.84;31.35;44793.91;5089271;28;20501;-72
2022/07/29 06:22:31;;;;;;;7.63;2.87;;;;;;;-143.84;31.92;44803.44;5089555;28;20953;-72
2022/07/29 06:25:09;;;;;;;4.60;2.40;;;;;;;-143.84;31.47;44786.31;5088776;28;20976;-72
2022/07/29 06:27:42;;;;;;;9.83;2.20;;;;;;;-143.84;31.38;44782.50;5078831;28;20549;-72
2022/07/29 06:30:20;;;;;;;4.50;2.60;;;;;;;-143.84;31.04;44782.50;5087433;28;20812;-72
2022/07/29 06:32:53;;;;;;;5.20;2.13;;;;;;;-143.84;30.84;44795.81;5087782;28;20443;-72
2022/07/29 06:35:25;;;;;;;1.70;1.60;;;;;;;-143.84;30.47;44780.59;5090266;28;20929;-72
2022/07/29 06:37:52;;;;;;;3.13;2.27;;;;;;;-143.84;31.08;44755.84;5089898;28;20840;-72
2022/07/29 06:43:05;;;;;;;4.13;2.10;;;;;;;-143.84;29.12;44748.22;5090778;28;20431;-72
2022/07/29 06:45:35;;;;;;;7.77;1.83;;;;;;;-143.84;29.30;44742.50;5090591;28;20467;-72
2022/07/29 06:48:02;;;;;;;3.37;2.23;;;;;;;-143.84;29.56;44748.22;5090864;28;20471;-72
2022/07/29 06:50:29;;;;;;;2.70;1.73;;;;;;;-143.84;29.90;44738.69;5090267;28;20444;-72
2022/07/29 06:52:57;;;;;;;2.47;2.00;;;;;;;-143.84;28.73;44778.69;5090251;28;20436;-72
2022/07/29 06:55:24;;;;;;;2.20;2.00;;;;;;;-143.84;28.76;44725.38;5089999;28;20435;-72
2022/07/29 06:57:51;;;;;;;4.77;2.00;;;;;;;-143.84;28.72;44713.94;5089735;28;20938;-72
2022/07/29 07:00:18;;;;;;;2.30;2.10;;;;;;;-143.84;28.16;44719.66;5090144;28;20435;-72
2022/07/29 07:02:47;;;;;;;3.20;2.23;;;;;;;-143.84;27.97;44761.56;5090398;28;20783;-72
2022/07/29 07:05:15;;;;;;;3.00;1.77;;;;;;;-143.84;29.50;44723.47;5090077;28;20528;-72
2022/07/29 07:07:42;;;;;;;2.60;2.10;;;;;;;-143.84;28.59;44753.94;5090126;28;20471;-72
2022/07/29 07:10:09;;;;;;;9.63;2.20;;;;;;;-143.84;27.83;44742.50;5089931;28;20488;-72
2022/07/29 07:12:37;;;;;;;3.83;2.40;;;;;;;-143.84;29.25;44740.59;5090235;28;20436;-72
2022/07/29 07:15:05;;;;;;;7.70;2.00;;;;;;;-143.84;29.36;44733.00;5090126;28;20455;-72
2022/07/29 07:17:32;;;;;;;11.67;2.70;;;;;;;-143.84;29.48;44738.69;5108899;28;20880;-72
2022/07/29 07:20:01;;;;;;;5.27;2.33;;;;;;;-143.84;29.37;44731.09;5110452;28;20447;-72
2022/07/29 07:22:28;;;;;;;5.83;2.40;;;;;;;-143.84;28.94;44706.34;5110498;28;20521;-72
2022/07/29 07:24:55;;;;;;;5.60;2.20;;;;;;;-143.84;28.99;44742.50;5110233;28;20504;-72
2022/07/29 07:27:22;;;;;;;10.00;2.90;;;;;;;-143.84;28.76;44759.66;5114043;28;20475;-72
2022/07/29 07:29:49;;;;;;;2.20;2.00;;;;;;;-143.84;29.01;44740.59;5114522;28;20441;-72
2022/07/29 07:32:17;;;;;;;4.90;2.00;;;;;;;-143.84;28.95;44748.22;5114041;28;20442;-72
2022/07/29 07:34:44;;;;;;;2.77;2.50;;;;;;;-143.84;28.78;44715.84;5114408;28;20431;-72
2022/07/29 07:37:14;;;;;;;2.40;1.97;;;;;;;-143.84;29.13;44738.69;5114411;28;20513;-72
2022/07/29 07:39:41;;;;;;;2.70;1.93;;;;;;;-143.84;27.94;44719.66;5114323;28;20861;-72
2022/07/29 07:42:10;;;;;;;9.10;2.03;;;;;;;-143.84;28.22;44721.56;5114484;28;20499;-72
2022/07/29 07:44:37;;;;;;;5.57;2.07;;;;;;;-143.84;28.76;44736.81;5113407;28;20607;-72
2022/07/29 07:47:04;;;;;;;2.60;2.40;;;;;;;-143.84;28.69;44757.75;5113152;28;20482;-72
2022/07/29 07:49:32;;;;;;;9.23;2.30;;;;;;;-143.84;29.35;44767.25;5113210;28;20435;-72
2022/07/29 07:51:59;;;;;;;5.73;2.70;;;;;;;-143.84;28.74;44746.31;5113724;28;20795;-72
2022/07/29 07:54:27;;;;;;;5.30;3.30;;;;;;;-143.84;28.47;44734.91;5113587;28;20944;-72
2022/07/29 07:56:55;;;;;;;5.90;3.20;;;;;;;-143.84;28.65;44721.56;5113586;28;20567;-72
2022/07/29 07:59:22;;;;;;;2.67;2.47;;;;;;;-143.84;28.33;44774.88;5113850;28;20909;-72
2022/07/29 08:01:49;;;;;;;6.70;2.53;;;;;;;-143.84;28.66;44769.16;5114184;28;20427;-72
2022/07/29 08:04:17;;;;;;;2.90;2.70;;;;;;;-143.84;28.95;44755.84;5113748;28;20458;-72
2022/07/29 08:06:44;;;;;;;10.93;2.50;;;;;;;-143.84;28.64;44740.59;5113609;28;20478;-72
2022/07/29 08:09:11;;;;;;;6.60;2.67;;;;;;;-143.84;29.32;44740.59;5113917;28;20803;-72
2022/07/29 08:11:40;;;;;;;4.77;2.87;;;;;;;-143.84;29.04;44757.75;5113360;28;20489;-72
2022/07/29 08:14:07;;;;;;;8.23;2.90;;;;;;;-143.84;29.09;44744.41;5113776;28;20470;-72
2022/07/29 08:16:34;;;;;;;10.13;2.37;;;;;;;-143.84;29.57;44752.03;5099742;28;20451;-72
2022/07/29 08:19:01;;;;;;;5.73;2.87;;;;;;;-143.84;28.94;44740.59;5092817;28;20525;-72
2022/07/29 08:21:29;;;;;;;6.73;1.80;;;;;;;-143.84;29.13;44748.22;5092949;28;20501;-72
2022/07/29 08:24:42;;;;;;;4.90;2.20;;;;;;;-143.84;29.78;44733.00;5092773;28;20436;-72
2022/07/29 08:26:45;;;;;;;6.70;2.30;;;;;;;-143.84;29.40;44738.69;5092590;28;20826;-72
2022/07/29 08:29:12;;;;;;;2.40;2.20;;;;;;;-143.84;29.28;44752.03;5092606;28;20444;-72
2022/07/29 08:31:41;;;;;;;5.10;2.07;;;;;;;-143.84;28.82;44748.22;5092464;28;20497;-72
2022/07/29 08:34:08;;;;;;;6.10;2.80;;;;;;;-143.84;29.10;44729.19;5092529;28;20440;-72
2022/07/29 08:36:36;;;;;;;2.53;2.20;;;;;;;-143.84;28.96;44740.59;5091930;28;20894;-73
2022/07/29 08:39:04;;;;;;;5.03;2.37;;;;;;;-143.84;28.53;44761.56;5090125;28;20436;-74
2022/07/29 08:41:31;;;;;;;3.93;2.53;;;;;;;-143.84;28.64;44784.41;5091369;28;20432;-74
2022/07/29 08:44:00;;;;;;;2.57;2.10;;;;;;;-143.84;28.70;44755.84;5091249;28;20497;-74
2022/07/29 08:46:27;;;;;;;2.30;2.03;;;;;;;-143.84;28.38;44752.03;5091321;28;20448;-74
2022/07/29 08:48:55;;;;;;;8.40;2.07;;;;;;;-143.84;28.95;44782.50;5091330;28;20466;-74
2022/07/29 08:51:23;;;;;;;4.03;2.07;;;;;;;-143.84;28.42;44761.56;5091218;28;20439;-74
2022/07/29 08:53:51;;;;;;;2.60;2.40;;;;;;;-143.84;28.30;44765.34;5091181;28;20440;-74
2022/07/29 08:56:19;;;;;;;3.60;2.20;;;;;;;-143.84;28.27;44763.47;5090949;28;20428;-74
2022/07/29 08:58:48;;;;;;;5.13;2.37;;;;;;;-143.84;28.85;44767.25;5090891;28;20759;-74
2022/07/29 09:01:18;;;;;;;4.87;2.37;;;;;;;-143.84;28.73;44765.34;5090991;28;20487;-74
2022/07/29 09:03:47;;;;;;;7.90;1.97;;;;;;;-143.84;28.36;44767.25;5091506;28;20437;-74
2022/07/29 09:06:15;;;;;;;4.03;2.10;;;;;;;-143.84;28.69;44795.81;5090883;28;21329;-74
2022/07/29 09:08:42;;;;;;;2.37;2.10;;;;;;;-143.84;28.48;44740.59;5090671;28;20479;-74
2022/07/29 09:11:11;;;;;;;5.60;2.63;;;;;;;-143.84;28.34;44752.03;5090002;28;20904;-75
2022/07/29 09:13:38;;;;;;;4.30;1.97;;;;;;;-143.84;28.36;44755.84;5090752;28;20501;-74
2022/07/29 09:16:06;;;;;;;8.20;2.30;;;;;;;-143.84;28.94;44744.41;5083399;28;20869;-74
2022/07/29 09:18:39;;;;;;;2.60;2.40;;;;;;;-143.84;28.53;44765.34;5090331;28;20839;-74
2022/07/29 09:24:06;;;;;;;2.33;2.00;;;;;;;-143.84;28.99;44746.31;5083725;28;20566;-74
2022/07/29 09:26:36;;;;;;;2.50;2.27;;;;;;;-143.84;29.48;44729.19;5091477;28;20436;-74
2022/07/29 09:29:11;;;;;;;3.00;2.37;;;;;;;-143.84;29.98;44761.56;5090698;28;20933;-74
2022/07/29 09:31:40;;;;;;;5.70;2.20;;;;;;;-143.84;30.32;44744.41;5091498;28;20439;-73
2022/07/29 09:34:10;;;;;;;4.23;2.60;;;;;;;-143.84;30.42;44769.16;5091247;28;20444;-73
2022/07/29 09:36:41;;;;;;;9.03;2.27;;;;;;;-143.84;30.82;44744.41;5091305;28;20498;-73
2022/07/29 09:39:09;;;;;;;6.17;2.50;;;;;;;-143.84;31.18;44771.06;5091744;28;20432;-73
2022/07/29 09:41:49;;;;;;;4.83;3.10;;;;;;;-143.84;31.08;44742.50;5091580;28;20931;-73
2022/07/29 09:44:18;;;;;;;3.07;2.30;;;;;;;-143.84;30.97;44761.56;5091331;28;20442;-73
2022/07/29 09:47:02;;;;;;;2.50;2.33;;;;;;;-143.84;29.98;44759.66;5091621;28;20519;-73
2022/07/29 09:49:31;;;;;;;4.70;2.40;;;;;;;-143.84;30.00;44784.41;5090373;28;20440;-73
2022/07/29 09:52:04;;;;;;;2.70;2.00;;;;;;;-143.84;29.91;44772.97;5091742;28;20431;-72
2022/07/29 09:54:36;;;;;;;16.00;2.93;;;;;;;-143.84;29.49;44774.88;5091813;28;20497;-74
2022/07/29 09:57:05;;;;;;;4.30;2.00;;;;;;;-143.84;29.16;44774.88;5090306;28;21766;-73
2022/07/29 09:59:32;;;;;;;7.50;2.27;;;;;;;-143.84;29.40;44750.13;5080189;28;20527;-73
2022/07/29 10:02:00;;;;;;;2.63;2.40;;;;;;;-143.84;29.98;44782.50;5086866;28;20443;-73
2022/07/29 10:04:40;;;;;;;6.23;2.13;;;;;;;-143.84;29.78;44767.25;5090545;28;20802;-73
2022/07/29 10:07:07;;;;;;;2.53;1.93;;;;;;;-143.84;29.90;44753.94;5089630;28;20494;-73
2022/07/29 10:09:35;;;;;;;2.53;2.33;;;;;;;-143.84;29.84;44782.50;5088158;28;20969;-74
2022/07/29 10:12:10;;;;;;;2.40;2.20;;;;;;;-143.84;29.42;44793.91;5090155;28;20494;-73
2022/07/29 10:14:39;;;;;;;2.27;2.17;;;;;;;-143.84;29.98;44763.47;5089197;28;20451;-73
2022/07/29 10:17:09;;;;;;;7.60;2.27;;;;;;;-143.84;29.60;44772.97;5086549;28;20448;-74
2022/07/29 10:19:39;;;;;;;2.40;2.20;;;;;;;-143.84;29.64;44769.16;5085053;28;20729;-74
2022/07/29 10:22:08;;;;;;;3.40;2.00;;;;;;;-143.84;29.54;44748.22;5086848;28;20495;-74
2022/07/29 10:24:37;;;;;;;2.40;2.20;;;;;;;-143.84;29.20;44767.25;5090241;28;20458;-73
2022/07/29 10:27:06;;;;;;;3.50;2.30;;;;;;;-143.84;28.84;44801.53;5087899;28;20452;-73
2022/07/29 10:29:34;;;;;;;2.30;2.10;;;;;;;-143.84;29.03;44793.91;5090164;28;20474;-73
2022/07/29 10:32:36;;;;;;;3.90;1.80;;;;;;;-143.84;28.78;44774.88;5090610;28;20933;-73
2022/07/29 10:35:19;;;;;;;5.77;2.60;;;;;;;-143.84;29.14;44807.25;5008445;28;20498;-73
2022/07/29 10:38:14;;;;;;;3.43;1.77;;;;;;;-143.84;29.69;44814.88;5082262;28;20458;-73
2022/07/29 10:43:45;;;;;;;9.03;2.73;;;;;;;-143.84;29.86;44801.53;5089160;28;20434;-73
2022/07/29 10:46:14;;;;;;;3.43;1.90;;;;;;;-143.84;30.07;44761.56;5088006;28;20465;-74
2022/07/29 10:49:05;;;;;;;6.30;2.10;;;;;;;-143.84;30.29;44792.00;5088846;28;20506;-73
2022/07/29 10:52:07;;;;;;;10.17;2.30;;;;;;;-143.84;30.29;44782.50;5088084;28;20470;-73
2022/07/29 10:54:42;;;;;;;2.40;1.90;;;;;;;-143.84;30.43;44774.88;5083092;28;20511;-74
2022/07/29 10:57:20;;;;;;;2.60;2.40;;;;;;;-143.84;31.07;44826.28;5089021;28;20810;-73
2022/07/29 10:59:49;;;;;;;2.30;2.20;;;;;;;-143.84;31.75;44778.69;5088981;28;20956;-73
2022/07/29 11:02:47;;;;;;;6.13;2.47;;;;;;;-143.84;31.11;44792.00;5092594;28;20451;-74
2022/07/29 11:05:17;;;;;;;7.93;2.30;;;;;;;-143.84;31.83;44811.06;5093501;28;20454;-73
2022/07/29 11:08:26;;;;;;;2.70;2.50;;;;;;;-143.84;31.46;44782.50;5092531;28;20494;-73
2022/07/29 11:11:40;;;;;;;5.40;2.50;;;;;;;-143.84;31.96;44809.16;5042514;28;20549;-73
2022/07/29 11:14:07;;;;;;;4.80;2.40;;;;;;;-143.84;32.96;44790.13;5092547;28;21525;-73
2022/07/29 11:17:03;;;;;;;3.20;2.20;;;;;;;-143.84;32.22;44790.13;5090014;28;20438;-73
2022/07/29 11:19:30;;;;;;;2.10;2.00;;;;;;;-143.84;31.40;44795.81;5089539;28;20464;-73
2022/07/29 11:21:58;;;;;;;6.30;2.10;;;;;;;-143.84;32.06;44784.41;5093033;28;20444;-74
2022/07/29 11:24:28;;;;;;;2.67;2.43;;;;;;;-143.84;32.70;44788.22;5092856;28;20548;-74
2022/07/29 11:27:19;;;;;;;4.97;2.60;;;;;;;-143.84;33.34;44780.59;5090811;28;20540;-74
2022/07/29 11:29:52;;;;;;;3.73;2.10;;;;;;;-143.84;32.38;44801.53;5084595;28;20731;-75
2022/07/29 11:32:20;;;;;;;3.53;2.30;;;;;;;-143.84;31.71;44780.59;5092476;28;20459;-74
2022/07/29 11:34:49;;;;;;;7.07;2.50;;;;;;;-143.84;32.93;44765.34;5092849;28;20854;-73
2022/07/29 11:37:21;;;;;;;4.33;2.60;;;;;;;-143.84;31.78;44792.00;5091704;28;20466;-73
2022/07/29 11:40:08;;;;;;;5.00;2.50;;;;;;;-143.84;32.77;44780.59;5092079;28;20531;-73